No particular awareness of the weather is required.    There are no Weather-warnings


Meteo18 Weather Cam more information Meteo18 Weather Cam


Thunder radar more information blitzortung!


Rain radar more information rain snow radar


Visit our other weather sites:

Template documentation
and downloads

And another site



Weather Underground History page Text

Daily Summary for April 19, 2017 Units:  English    Metric   Both
« Previous Day
Next Day »
Daily Weekly Monthly Yearly Custom
  High: Low: Average:
Temperature: TemperatureC °F 1.0 °F 5.8 °F
Dew Point: DewpointC °F -3.6 °F -0.9 °F
Humidity: Humidity % 41 % 64 %
Wind Speed: WindSpeedKMH mph 0.0 mph 9.9 mph
Wind Gust: WindSpeedGustKMH mph - -
Wind:- - East
Pressure: PressurehPa in 1029.3 in -
Precipitation: 0.0 in    
Historical Graphs
 
 
Tabular Data for April 19, 2017
Time Temperature Dew Point Pressure Wind Wind Speed Wind Gust Humidity Rainfall Rate (Hourly)
TemperatureC °F DewpointC °F PressurehPa in Calm     Humidity % HourlyPrecipMM in
00:07 4.1 °F 1.3 °F 1029.3 in Calm   12.9 mph 82 % 0.0 in
00:12 4.1 °F 1.3 °F 1029.3 in NNW 4.8 mph 12.9 mph 82 % 0.0 in
00:17 4.3 °F 1.3 °F 1029.3 in NE 4.8 mph 12.9 mph 81 % 0.0 in
00:22 4.2 °F 1.2 °F 1029.3 in NE 6.4 mph 19.3 mph 81 % 0.0 in
00:27 4.0 °F 1.0 °F 1029.3 in NE 1.6 mph 19.3 mph 81 % 0.0 in
00:32 3.9 °F 0.9 °F 1029.3 in North 4.8 mph 19.3 mph 81 % 0.0 in
00:37 3.9 °F 0.9 °F 1029.3 in NE 3.2 mph 9.7 mph 81 % 0.0 in
00:42 4.0 °F 0.9 °F 1029.3 in North 3.2 mph 9.7 mph 80 % 0.0 in
00:52 3.8 °F 0.8 °F 1029.3 in North 1.6 mph 8.0 mph 81 % 0.0 in
00:57 3.8 °F 0.8 °F 1029.3 in NNE 1.6 mph 6.4 mph 81 % 0.0 in
01:02 3.8 °F 0.8 °F 1029.3 in NNW 6.4 mph 6.4 mph 81 % 0.0 in
01:12 3.8 °F 0.8 °F 1029.3 in NNW 4.8 mph 8.0 mph 81 % 0.0 in
01:17 3.6 °F 0.6 °F 1029.3 in North 3.2 mph 8.0 mph 81 % 0.0 in
01:22 3.4 °F 0.4 °F 1029.3 in NW 1.6 mph 6.4 mph 81 % 0.0 in
01:32 3.2 °F 0.6 °F 1029.3 in NNW 3.2 mph 6.4 mph 83 % 0.0 in
01:37 3.2 °F 0.6 °F 1029.3 in North 8.0 mph 11.3 mph 83 % 0.0 in
01:42 3.2 °F 0.6 °F 1029.3 in NNE 4.8 mph 11.3 mph 83 % 0.0 in
01:47 3.2 °F 0.6 °F 1029.3 in NNE 4.8 mph 11.3 mph 83 % 0.0 in
01:52 3.1 °F 0.5 °F 1029.3 in NE 3.2 mph 12.9 mph 83 % 0.0 in
01:57 3.2 °F 0.6 °F 1029.3 in NNE 9.7 mph 12.9 mph 83 % 0.0 in
02:02 3.1 °F 0.5 °F 1029.3 in North 3.2 mph 12.9 mph 83 % 0.0 in
02:07 3.2 °F 0.6 °F 1029.3 in North 4.8 mph 12.9 mph 83 % 0.0 in
02:12 3.1 °F 0.5 °F 1029.3 in NNE 1.6 mph 12.9 mph 83 % 0.0 in
02:17 3.2 °F 0.8 °F 1029.3 in Calm   12.9 mph 84 % 0.0 in
02:22 3.1 °F 0.7 °F 1029.3 in NNE 8.0 mph 16.1 mph 84 % 0.0 in
02:32 2.8 °F 0.4 °F 1029.3 in NW 4.8 mph 16.1 mph 84 % 0.0 in
02:37 2.8 °F 0.5 °F 1029.3 in Calm   9.7 mph 85 % 0.0 in
02:42 2.7 °F 0.4 °F 1029.3 in North 4.8 mph 9.7 mph 85 % 0.0 in
02:47 2.7 °F 0.4 °F 1029.3 in NNE 6.4 mph 9.7 mph 85 % 0.0 in
02:52 2.7 °F 0.4 °F 1029.3 in NNE 6.4 mph 11.3 mph 85 % 0.0 in
02:57 2.7 °F 0.4 °F 1029.3 in North 9.7 mph 11.3 mph 85 % 0.0 in
03:02 2.7 °F 0.4 °F 1029.3 in NE 1.6 mph 11.3 mph 85 % 0.0 in
03:07 2.7 °F 0.4 °F 1029.3 in NNE 8.0 mph 9.7 mph 85 % 0.0 in
03:12 2.7 °F 0.4 °F 1029.3 in NE 3.2 mph 11.3 mph 85 % 0.0 in
03:17 2.7 °F 0.4 °F 1029.3 in NE 1.6 mph 11.3 mph 85 % 0.0 in
03:22 2.6 °F 0.3 °F 1029.3 in North 3.2 mph 11.3 mph 85 % 0.0 in
03:27 2.5 °F 0.2 °F 1029.3 in NNE 6.4 mph 8.0 mph 85 % 0.0 in
03:32 2.5 °F 0.2 °F 1029.3 in NE 6.4 mph 8.0 mph 85 % 0.0 in
03:37 2.4 °F 0.1 °F 1029.3 in North 6.4 mph 8.0 mph 85 % 0.0 in
03:42 2.4 °F 0.1 °F 1029.3 in NE 3.2 mph 8.0 mph 85 % 0.0 in
03:52 2.4 °F 0.1 °F 1029.3 in NE 1.6 mph 9.7 mph 85 % 0.0 in
04:02 2.7 °F 0.3 °F 1029.3 in NNE 11.3 mph 11.3 mph 84 % 0.0 in
04:12 2.6 °F 0.3 °F 1029.3 in NE 8.0 mph 16.1 mph 85 % 0.0 in
04:17 2.6 °F 0.2 °F 1029.3 in NE 8.0 mph 12.9 mph 84 % 0.0 in
04:22 2.5 °F 0.2 °F 1029.7 in NE 1.6 mph 14.5 mph 85 % 0.0 in
04:32 2.3 °F 0.0 °F 1029.7 in NNE 1.6 mph 14.5 mph 85 % 0.0 in
04:37 2.3 °F 0.0 °F 1029.7 in North 4.8 mph 11.3 mph 85 % 0.0 in
04:42 2.3 °F 0.0 °F 1029.7 in North 6.4 mph 11.3 mph 85 % 0.0 in
04:47 2.2 °F -0.1 °F 1029.7 in NNE 4.8 mph 14.5 mph 85 % 0.0 in
04:52 2.1 °F -0.2 °F 1029.7 in NNW 1.6 mph 14.5 mph 85 % 0.0 in
05:02 1.8 °F -0.3 °F 1029.7 in NNE 1.6 mph 11.3 mph 86 % 0.0 in
05:12 1.7 °F -0.2 °F 1029.7 in NNE 4.8 mph 12.9 mph 87 % 0.0 in
05:17 1.7 °F -0.2 °F 1029.7 in NNW 3.2 mph 12.9 mph 87 % 0.0 in
05:22 1.6 °F -0.3 °F 1029.7 in NNE 4.8 mph 12.9 mph 87 % 0.0 in
05:32 1.6 °F -0.3 °F 1029.7 in ENE 9.7 mph 12.9 mph 87 % 0.0 in
05:42 1.6 °F -0.3 °F 1029.7 in NE 3.2 mph 14.5 mph 87 % 0.0 in
05:47 1.6 °F -0.3 °F 1029.7 in NNE 3.2 mph 14.5 mph 87 % 0.0 in
05:52 1.5 °F -0.4 °F 1030.0 in NNW 3.2 mph 14.5 mph 87 % 0.0 in
06:02 1.4 °F -0.5 °F 1030.0 in NNE 4.8 mph 11.3 mph 87 % 0.0 in
06:12 1.5 °F -0.3 °F 1030.0 in East 3.2 mph 12.9 mph 88 % 0.0 in
06:17 1.4 °F -0.5 °F 1030.0 in NNE 4.8 mph 16.1 mph 87 % 0.0 in
06:22 1.4 °F -0.5 °F 1030.0 in North 4.8 mph 16.1 mph 87 % 0.0 in
06:32 1.3 °F -0.5 °F 1030.4 in NNE 3.2 mph 16.1 mph 88 % 0.0 in
06:42 1.2 °F -0.6 °F 1030.4 in North 1.6 mph 12.9 mph 88 % 0.0 in
06:47 1.1 °F -0.7 °F 1030.4 in North 3.2 mph 12.9 mph 88 % 0.0 in
06:52 1.0 °F -0.8 °F 1030.4 in NNE 4.8 mph 12.9 mph 88 % 0.0 in
06:57 1.1 °F -0.7 °F 1030.4 in NNW 1.6 mph 9.7 mph 88 % 0.0 in
07:02 1.1 °F -0.7 °F 1030.4 in WNW 1.6 mph 9.7 mph 88 % 0.0 in
07:12 1.2 °F -0.6 °F 1030.4 in North 3.2 mph 8.0 mph 88 % 0.0 in
07:17 1.3 °F -0.5 °F 1030.4 in North 1.6 mph 9.7 mph 88 % 0.0 in
07:22 1.4 °F -0.4 °F 1030.4 in Calm   9.7 mph 88 % 0.0 in
07:32 1.6 °F -0.3 °F 1030.4 in NNE 6.4 mph 9.7 mph 87 % 0.0 in
07:42 1.9 °F 0.0 °F 1030.7 in WNW 1.6 mph 8.0 mph 87 % 0.0 in
07:47 2.1 °F 0.0 °F 1030.7 in North 3.2 mph 12.9 mph 86 % 0.0 in
07:52 2.2 °F 0.1 °F 1030.7 in North 6.4 mph 12.9 mph 86 % 0.0 in
07:57 2.3 °F 0.2 °F 1030.7 in NNE 1.6 mph 12.9 mph 86 % 0.0 in
08:02 2.4 °F 0.1 °F 1030.7 in NNW 3.2 mph 12.9 mph 85 % 0.0 in
08:12 2.8 °F 0.5 °F 1031.0 in NNW 1.6 mph 9.7 mph 85 % 0.0 in
08:17 2.9 °F 0.6 °F 1031.0 in North 11.3 mph 11.3 mph 85 % 0.0 in
08:22 3.1 °F 0.7 °F 1031.0 in North 6.4 mph 11.3 mph 84 % 0.0 in
08:27 3.3 °F 0.7 °F 1031.0 in WNW 1.6 mph 11.3 mph 83 % 0.0 in
08:32 3.5 °F 0.7 °F 1031.0 in NNE 8.0 mph 11.3 mph 82 % 0.0 in
08:37 3.7 °F 0.7 °F 1031.0 in North 4.8 mph 20.9 mph 81 % 0.0 in
08:42 3.9 °F 0.9 °F 1031.0 in NE 4.8 mph 20.9 mph 81 % 0.0 in
08:52 4.1 °F 1.0 °F 1031.0 in NE 16.1 mph 20.9 mph 80 % 0.0 in
08:57 4.2 °F 0.9 °F 1031.0 in NNE 12.9 mph 16.1 mph 79 % 0.0 in
09:02 4.3 °F 1.0 °F 1031.4 in NNE 8.0 mph 16.1 mph 79 % 0.0 in
09:12 4.4 °F 1.1 °F 1031.4 in NNE 16.1 mph 25.7 mph 79 % 0.0 in
09:22 4.7 °F 1.4 °F 1031.4 in NE 9.7 mph 25.7 mph 79 % 0.0 in
09:32 5.0 °F 1.3 °F 1031.4 in NE 14.5 mph 22.5 mph 77 % 0.0 in
09:42 4.8 °F 1.3 °F 1031.4 in NNE 9.7 mph 19.3 mph 78 % 0.0 in
09:52 5.1 °F 1.6 °F 1031.4 in NNE 6.4 mph 20.9 mph 78 % 0.0 in
10:02 5.7 °F 1.6 °F 1031.4 in ENE 6.4 mph 22.5 mph 75 % 0.0 in
10:12 6.1 °F 2.0 °F 1031.4 in East 11.3 mph 20.9 mph 75 % 0.0 in
10:17 6.4 °F 2.1 °F 1031.4 in NE 8.0 mph 20.9 mph 74 % 0.0 in
10:22 6.4 °F 2.1 °F 1031.4 in NE 1.6 mph 20.9 mph 74 % 0.0 in
10:32 6.7 °F 1.6 °F 1031.4 in NE 12.9 mph 19.3 mph 70 % 0.0 in
10:37 6.9 °F 1.6 °F 1031.7 in ENE 11.3 mph 22.5 mph 69 % 0.0 in
10:42 7.1 °F 1.8 °F 1031.7 in NNW 12.9 mph 22.5 mph 69 % 0.0 in
10:52 7.3 °F 1.8 °F 1031.7 in North 12.9 mph 22.5 mph 68 % 0.0 in
11:02 7.6 °F 1.4 °F 1031.7 in North 22.5 mph 25.7 mph 65 % 0.0 in
11:12 7.9 °F 1.7 °F 1031.7 in NNE 17.7 mph 30.6 mph 65 % 0.0 in
11:17 8.0 °F 1.8 °F 1031.7 in NE 16.1 mph 25.7 mph 65 % 0.0 in
11:22 7.7 °F 0.4 °F 1032.1 in NNE 27.4 mph 27.4 mph 60 % 0.0 in
11:32 7.8 °F 0.7 °F 1032.1 in ENE 12.9 mph 35.4 mph 61 % 0.0 in
11:37 8.2 °F 0.9 °F 1032.1 in NE 8.0 mph 35.4 mph 60 % 0.0 in
11:42 7.9 °F -0.3 °F 1032.1 in North 19.3 mph 29.0 mph 56 % 0.0 in
11:47 7.6 °F -0.1 °F 1032.1 in NNE 9.7 mph 33.8 mph 58 % 0.0 in
11:52 8.2 °F 0.4 °F 1032.1 in East 11.3 mph 33.8 mph 58 % 0.0 in
11:57 8.4 °F 0.4 °F 1032.1 in NNE 9.7 mph 33.8 mph 57 % 0.0 in
12:02 8.6 °F 0.8 °F 1032.1 in NE 14.5 mph 33.8 mph 58 % 0.0 in
12:07 8.3 °F 0.0 °F 1032.1 in NNW 12.9 mph 32.2 mph 56 % 0.0 in
12:12 7.9 °F -0.1 °F 1032.1 in NE 14.5 mph 32.2 mph 57 % 0.0 in
12:17 7.8 °F -0.2 °F 1032.1 in NW 17.7 mph 29.0 mph 57 % 0.0 in
12:22 8.2 °F -0.1 °F 1032.1 in NNE 16.1 mph 29.0 mph 56 % 0.0 in
12:27 8.1 °F -1.2 °F 1032.1 in NNE 17.7 mph 29.0 mph 52 % 0.0 in
12:32 8.5 °F -1.1 °F 1031.7 in ENE 12.9 mph 30.6 mph 51 % 0.0 in
12:37 8.8 °F -1.3 °F 1031.7 in East 12.9 mph 30.6 mph 49 % 0.0 in
12:42 8.9 °F -0.2 °F 1032.1 in NNW 6.4 mph 30.6 mph 53 % 0.0 in
12:52 8.7 °F -0.1 °F 1032.1 in NNE 22.5 mph 29.0 mph 54 % 0.0 in
12:57 8.8 °F -0.8 °F 1032.1 in North 25.7 mph 32.2 mph 51 % 0.0 in
13:02 9.0 °F 0.4 °F 1032.1 in ENE 16.1 mph 32.2 mph 55 % 0.0 in
13:07 8.6 °F -1.0 °F 1032.1 in NE 22.5 mph 35.4 mph 51 % 0.0 in
13:12 8.9 °F -0.7 °F 1032.1 in NE 11.3 mph 35.4 mph 51 % 0.0 in
13:17 9.1 °F -1.1 °F 1032.1 in North 11.3 mph 32.2 mph 49 % 0.0 in
13:22 8.9 °F -0.7 °F 1031.7 in NNE 17.7 mph 32.2 mph 51 % 0.0 in
13:27 9.1 °F -1.6 °F 1031.7 in NNE 19.3 mph 29.0 mph 47 % 0.0 in
13:32 9.3 °F -1.2 °F 1031.7 in NE 19.3 mph 29.0 mph 48 % 0.0 in
13:37 9.5 °F -1.0 °F 1031.7 in NE 20.9 mph 33.8 mph 48 % 0.0 in
13:42 9.7 °F -0.5 °F 1031.4 in NE 20.9 mph 33.8 mph 49 % 0.0 in
13:52 9.3 °F -0.6 °F 1031.7 in NE 30.6 mph 33.8 mph 50 % 0.0 in
13:57 8.9 °F -1.5 °F 1031.7 in NE 12.9 mph 30.6 mph 48 % 0.0 in
14:07 9.9 °F -0.6 °F 1031.4 in NNW 8.0 mph 30.6 mph 48 % 0.0 in
14:12 10.2 °F -0.6 °F 1031.4 in NW 8.0 mph 30.6 mph 47 % 0.0 in
14:17 9.6 °F -0.6 °F 1031.4 in NE 29.0 mph 30.6 mph 49 % 0.0 in
14:22 9.2 °F -0.4 °F 1031.4 in NNE 20.9 mph 30.6 mph 51 % 0.0 in
14:32 9.4 °F -1.9 °F 1031.4 in NE 29.0 mph 37.0 mph 45 % 0.0 in
14:37 9.3 °F -1.2 °F 1031.4 in NE 29.0 mph 43.4 mph 48 % 0.0 in
14:42 9.3 °F -2.0 °F 1031.4 in NNE 14.5 mph 43.4 mph 45 % 0.0 in
14:47 8.9 °F -2.1 °F 1031.4 in NE 27.4 mph 40.2 mph 46 % 0.0 in
14:52 9.4 °F -1.6 °F 1031.4 in NE 14.5 mph 40.2 mph 46 % 0.0 in
14:57 9.8 °F -2.2 °F 1031.4 in NE 9.7 mph 40.2 mph 43 % 0.0 in
15:02 9.3 °F -1.2 °F 1031.4 in NE 20.9 mph 40.2 mph 48 % 0.0 in
15:12 9.6 °F -2.1 °F 1031.4 in NNW 8.0 mph 32.2 mph 44 % 0.0 in
15:17 9.7 °F -1.7 °F 1031.4 in NE 14.5 mph 35.4 mph 45 % 0.0 in
15:22 9.6 °F -1.8 °F 1031.0 in NE 30.6 mph 35.4 mph 45 % 0.0 in
15:27 9.7 °F -1.7 °F 1031.4 in NNE 11.3 mph 38.6 mph 45 % 0.0 in
15:32 9.9 °F -0.6 °F 1031.4 in North 8.0 mph 38.6 mph 48 % 0.0 in
15:37 9.8 °F -1.6 °F 1031.0 in NNW 16.1 mph 38.6 mph 45 % 0.0 in
15:42 9.9 °F -1.5 °F 1031.0 in NE 16.1 mph 38.6 mph 45 % 0.0 in
15:47 9.8 °F -1.6 °F 1031.0 in NE 9.7 mph 35.4 mph 45 % 0.0 in
15:52 9.8 °F -1.6 °F 1031.0 in NE 8.0 mph 35.4 mph 45 % 0.0 in
16:02 9.4 °F -1.9 °F 1031.0 in ENE 9.7 mph 32.2 mph 45 % 0.0 in
16:12 9.8 °F -1.6 °F 1031.0 in NNE 9.7 mph 35.4 mph 45 % 0.0 in
16:17 10.1 °F -1.6 °F 1031.0 in ESE 4.8 mph 35.4 mph 44 % 0.0 in
16:22 9.8 °F -2.8 °F 1031.0 in NNE 11.3 mph 35.4 mph 41 % 0.0 in
16:27 9.6 °F -2.4 °F 1031.0 in NNE 8.0 mph 32.2 mph 43 % 0.0 in
16:32 10.0 °F -2.3 °F 1030.7 in ENE 12.9 mph 32.2 mph 42 % 0.0 in
16:37 10.3 °F -1.4 °F 1030.7 in NNE 35.4 mph 35.4 mph 44 % 0.0 in
16:42 9.6 °F -1.8 °F 1031.0 in NE 12.9 mph 32.2 mph 45 % 0.0 in
16:47 9.2 °F -1.8 °F 1031.0 in NE 27.4 mph 41.8 mph 46 % 0.0 in
16:57 9.4 °F -1.9 °F 1031.0 in NNW 17.7 mph 35.4 mph 45 % 0.0 in
17:02 9.8 °F -1.9 °F 1030.7 in NE 11.3 mph 35.4 mph 44 % 0.0 in
17:12 9.3 °F -2.6 °F 1030.7 in NE 17.7 mph 30.6 mph 43 % 0.0 in
17:17 9.4 °F -1.9 °F 1030.7 in NNW 14.5 mph 33.8 mph 45 % 0.0 in
17:22 9.7 °F -2.3 °F 1030.7 in NE 16.1 mph 33.8 mph 43 % 0.0 in
17:32 9.6 °F -1.8 °F 1030.7 in NE 20.9 mph 29.0 mph 45 % 0.0 in
17:42 9.6 °F -1.2 °F 1030.7 in North 8.0 mph 32.2 mph 47 % 0.0 in
17:47 9.7 °F -2.6 °F 1030.7 in NE 24.1 mph 32.2 mph 42 % 0.0 in
17:52 9.8 °F -1.9 °F 1030.7 in NNE 9.7 mph 32.2 mph 44 % 0.0 in
17:57 9.7 °F -2.3 °F 1030.7 in NE 25.7 mph 32.2 mph 43 % 0.0 in
18:02 9.3 °F -1.7 °F 1031.0 in NNE 17.7 mph 32.2 mph 46 % 0.0 in
18:12 9.2 °F -1.8 °F 1030.7 in NNE 24.1 mph 32.2 mph 46 % 0.0 in
18:17 9.2 °F -2.7 °F 1030.7 in NE 22.5 mph 30.6 mph 43 % 0.0 in
18:22 9.4 °F -2.2 °F 1031.0 in NE 20.9 mph 30.6 mph 44 % 0.0 in
18:27 9.4 °F -1.6 °F 1031.0 in NNE 16.1 mph 30.6 mph 46 % 0.0 in
18:32 8.9 °F -2.1 °F 1031.0 in NE 32.2 mph 32.2 mph 46 % 0.0 in
18:37 8.6 °F -2.4 °F 1031.0 in ENE 11.3 mph 30.6 mph 46 % 0.0 in
18:42 8.6 °F -2.4 °F 1031.0 in NE 9.7 mph 33.8 mph 46 % 0.0 in
18:52 8.9 °F -1.8 °F 1031.0 in NE 16.1 mph 33.8 mph 47 % 0.0 in
18:57 8.9 °F -2.1 °F 1031.0 in NE 19.3 mph 25.7 mph 46 % 0.0 in
19:02 8.7 °F -2.9 °F 1031.0 in North 25.7 mph 25.7 mph 44 % 0.0 in
19:12 8.7 °F -2.3 °F 1031.0 in ENE 8.0 mph 32.2 mph 46 % 0.0 in
19:17 8.8 °F -2.2 °F 1031.0 in NNE 4.8 mph 29.0 mph 46 % 0.0 in
19:22 8.6 °F -2.7 °F 1031.0 in NNE 12.9 mph 29.0 mph 45 % 0.0 in
19:32 8.2 °F -2.4 °F 1031.0 in NE 27.4 mph 27.4 mph 47 % 0.0 in
19:37 8.2 °F -2.4 °F 1031.4 in ENE 6.4 mph 30.6 mph 47 % 0.0 in
19:42 8.2 °F -2.7 °F 1031.0 in NNE 12.9 mph 30.6 mph 46 % 0.0 in
19:47 8.0 °F -3.2 °F 1031.4 in NE 12.9 mph 30.6 mph 45 % 0.0 in
19:52 7.8 °F -3.1 °F 1031.4 in NE 17.7 mph 30.6 mph 46 % 0.0 in
19:57 7.7 °F -2.9 °F 1031.4 in NNE 17.7 mph 29.0 mph 47 % 0.0 in
20:02 7.7 °F -3.2 °F 1031.4 in NE 17.7 mph 29.0 mph 46 % 0.0 in
20:12 7.7 °F -3.2 °F 1031.4 in NE 14.5 mph 24.1 mph 46 % 0.0 in
20:17 7.5 °F -3.4 °F 1031.4 in NNE 8.0 mph 27.4 mph 46 % 0.0 in
20:22 7.3 °F -3.3 °F 1031.7 in NE 22.5 mph 27.4 mph 47 % 0.0 in
20:27 7.2 °F -3.4 °F 1031.7 in NE 16.1 mph 30.6 mph 47 % 0.0 in
20:32 7.1 °F -3.2 °F 1031.7 in NE 14.5 mph 30.6 mph 48 % 0.0 in
20:37 6.9 °F -3.4 °F 1031.7 in NE 9.7 mph 30.6 mph 48 % 0.0 in
20:42 6.8 °F -3.5 °F 1031.7 in NE 16.1 mph 30.6 mph 48 % 0.0 in
20:47 6.7 °F -3.5 °F 1032.1 in North 9.7 mph 24.1 mph 48 % 0.0 in
20:52 6.6 °F -3.4 °F 1032.1 in NNE 12.9 mph 24.1 mph 49 % 0.0 in
20:57 6.4 °F -3.3 °F 1032.1 in ENE 8.0 mph 22.5 mph 50 % 0.0 in
21:02 6.2 °F -3.2 °F 1032.1 in NE 6.4 mph 22.5 mph 51 % 0.0 in
21:07 6.1 °F -3.3 °F 1032.1 in NNE 9.7 mph 14.5 mph 51 % 0.0 in
21:12 5.9 °F -3.5 °F 1032.1 in NNE 9.7 mph 14.5 mph 51 % 0.0 in
21:17 5.9 °F -3.5 °F 1032.1 in NNE 8.0 mph 14.5 mph 51 % 0.0 in
21:22 5.8 °F -3.3 °F 1032.4 in ENE 6.4 mph 14.5 mph 52 % 0.0 in
21:27 5.7 °F -3.4 °F 1032.1 in NNE 14.5 mph 16.1 mph 52 % 0.0 in
21:32 5.8 °F -3.3 °F 1032.4 in NNW 3.2 mph 16.1 mph 52 % 0.0 in
21:42 5.9 °F -3.5 °F 1032.4 in NNE 11.3 mph 19.3 mph 51 % 0.0 in
21:47 5.9 °F -3.5 °F 1032.4 in NE 6.4 mph 24.1 mph 51 % 0.0 in
21:52 5.8 °F -3.6 °F 1032.7 in NE 6.4 mph 24.1 mph 51 % 0.0 in
21:57 5.7 °F -3.4 °F 1032.7 in NE 3.2 mph 22.5 mph 52 % 0.0 in
22:02 5.5 °F -3.3 °F 1032.7 in NNE 3.2 mph 22.5 mph 53 % 0.0 in
22:12 5.1 °F -3.2 °F 1032.7 in Calm   19.3 mph 55 % 0.0 in
22:17 4.8 °F -3.2 °F 1032.7 in WNW 1.6 mph 9.7 mph 56 % 0.0 in
22:22 4.6 °F -3.2 °F 1032.7 in NW 1.6 mph 9.7 mph 57 % 0.0 in
22:27 4.4 °F -3.4 °F 1032.7 in NNW 4.8 mph 9.7 mph 57 % 0.0 in
22:32 4.3 °F -3.2 °F 1032.7 in NW 1.6 mph 9.7 mph 58 % 0.0 in
22:37 4.2 °F -3.3 °F 1032.7 in NNW 1.6 mph 8.0 mph 58 % 0.0 in
22:42 3.9 °F -3.4 °F 1033.1 in Calm   8.0 mph 59 % 0.0 in
22:47 3.8 °F -3.3 °F 1032.7 in North 1.6 mph 8.0 mph 60 % 0.0 in
22:52 3.7 °F -3.3 °F 1033.1 in NNE 1.6 mph 8.0 mph 60 % 0.0 in
22:57 3.6 °F -3.2 °F 1033.1 in North 1.6 mph 8.0 mph 61 % 0.0 in
23:02 3.6 °F -3.2 °F 1033.1 in North 1.6 mph 8.0 mph 61 % 0.0 in
23:07 3.4 °F -3.4 °F 1033.1 in NNW 3.2 mph 4.8 mph 61 % 0.0 in
23:12 3.6 °F -3.2 °F 1033.1 in NW 1.6 mph 4.8 mph 61 % 0.0 in
23:17 3.7 °F -3.1 °F 1033.1 in NNW 4.8 mph 8.0 mph 61 % 0.0 in
23:22 3.7 °F -3.3 °F 1033.1 in NE 6.4 mph 8.0 mph 60 % 0.0 in
23:32 3.6 °F -3.4 °F 1033.1 in NE 6.4 mph 11.3 mph 60 % 0.0 in
23:37 3.6 °F -3.4 °F 1033.1 in NNE 1.6 mph 11.3 mph 60 % 0.0 in
23:42 3.6 °F -3.4 °F 1033.1 in NNE 3.2 mph 11.3 mph 60 % 0.0 in
23:52 3.7 °F -3.6 °F 1033.1 in NNE 4.8 mph 9.7 mph 59 % 0.0 in
Meteo18
Compliments of Weather Underground - 4 mb

Script developed by  Jim McMurry - jmcmurry@mwt.net Adapted for the template by  Wim van der Kuil - Leuven-Template.eu

You find our weather info also at:

European Weather Network

Weather Underground

Equipment we use:

Weather-station
Davis Vue

Weather-program
Meteobridge

Weather-server
Raspberry PI 2 B+

Provider
1 and 1

Davis Vue

Meteobridge

Raspberry PI 2 B+

1 and 1